Time;durP1;ratioP1;P1;durP2;ratioP2;P2;SDS_P1;SDS_P2;PMS_P1;PMS_P2;Temp;Humidity;BMP_temperature;BMP_pressure;BME280_temperature;BME280_humidity;BME280_pressure;Samples;Min_cycle;Max_cycle;Signal;HPM_P1;HPM_P2
2022/02/24 00:00:42;;;;;;;4.47;2.83;;;;;;;3.48;100.00;100248.13;4959330;28;20049;-60
2022/02/24 00:03:28;;;;;;;3.70;2.58;;;;;;;3.64;100.00;100252.75;4974548;28;20069;-61
2022/02/24 00:06:15;;;;;;;4.85;3.03;;;;;;;3.55;100.00;100251.72;4938396;28;20101;-55
2022/02/24 00:08:59;;;;;;;4.93;3.17;;;;;;;3.33;100.00;100241.78;4972021;28;20529;-56
2022/02/24 00:11:43;;;;;;;5.35;3.15;;;;;;;3.52;100.00;100263.06;4979387;28;20089;-63
2022/02/24 00:14:28;;;;;;;4.00;2.85;;;;;;;3.66;100.00;100255.41;4979884;28;20522;-58
2022/02/24 00:17:13;;;;;;;6.68;3.30;;;;;;;3.26;100.00;100219.84;4985617;28;20064;-59
2022/02/24 00:19:58;;;;;;;5.70;3.33;;;;;;;3.60;100.00;100260.56;4984447;28;20586;-58
2022/02/24 00:22:44;;;;;;;5.30;3.38;;;;;;;3.69;100.00;100272.03;4968099;28;20168;-58
2022/02/24 00:25:29;;;;;;;5.18;3.55;;;;;;;3.77;100.00;100283.53;4951618;28;20062;-58
2022/02/24 00:28:13;;;;;;;5.15;3.53;;;;;;;3.60;100.00;100260.56;4985801;28;20088;-59
2022/02/24 00:30:57;;;;;;;4.70;3.25;;;;;;;3.75;100.00;100284.38;4976726;28;20100;-63
2022/02/24 00:33:42;;;;;;;4.90;3.42;;;;;;;3.66;100.00;100273.75;4970390;28;20052;-59
2022/02/24 00:36:26;;;;;;;5.85;3.80;;;;;;;3.81;100.00;100281.84;4958494;28;20108;-57
2022/02/24 00:39:11;;;;;;;5.30;3.53;;;;;;;3.84;100.00;100279.28;4986802;28;20057;-57
2022/02/24 00:41:57;;;;;;;5.18;3.65;;;;;;;3.80;100.00;100280.97;4988909;28;20065;-56
2022/02/24 00:44:41;;;;;;;7.15;3.70;;;;;;;3.70;100.00;100284.31;4969442;28;20068;-54
2022/02/24 00:47:26;;;;;;;5.55;3.78;;;;;;;3.63;100.00;100286.81;4992940;28;20073;-53
2022/02/24 00:50:11;;;;;;;5.63;3.88;;;;;;;3.47;100.00;100279.56;4980054;28;20057;-61
2022/02/24 00:52:56;;;;;;;;;;;;;;;3.37;100.00;100286.38;4964117;28;20098;-57
2022/02/24 00:55:41;;;;;;;5.82;3.58;;;;;;;3.48;100.00;100290.06;4971430;28;19976;-55
2022/02/24 00:58:26;;;;;;;7.40;3.72;;;;;;;3.44;100.00;100283.00;4967395;28;20078;-55
2022/02/24 01:01:11;;;;;;;6.80;4.20;;;;;;;3.47;100.00;100290.03;4971294;28;20128;-60
2022/02/24 01:03:55;;;;;;;5.65;4.10;;;;;;;3.47;100.00;100290.03;4979695;28;20053;-57
2022/02/24 01:06:40;;;;;;;5.10;3.77;;;;;;;3.49;100.00;100296.22;4978955;28;20135;-59
2022/02/24 01:09:24;;;;;;;6.72;4.25;;;;;;;3.34;100.00;100274.97;4955851;28;20049;-64
2022/02/24 01:12:09;;;;;;;5.68;4.10;;;;;;;3.24;100.00;100296.66;4990740;28;20105;-58
2022/02/24 01:14:54;;;;;;;7.18;4.57;;;;;;;3.43;100.00;100296.09;4982188;28;20131;-56
2022/02/24 01:17:43;;;;;;;6.32;3.90;;;;;;;3.69;100.00;100302.66;4971527;28;20125;-59
2022/02/24 01:20:28;;;;;;;6.78;4.47;;;;;;;3.66;100.00;100300.88;4939283;28;20120;-60
2022/02/24 01:23:12;;;;;;;7.70;4.05;;;;;;;3.13;100.00;100266.78;4955085;28;20134;-56
2022/02/24 01:25:57;;;;;;;8.55;4.93;;;;;;;3.39;100.00;100308.28;4962603;28;20553;-59
2022/02/24 01:28:41;;;;;;;12.45;4.40;;;;;;;3.38;100.00;100317.00;4947078;28;20141;-59
2022/02/24 01:31:26;;;;;;;7.45;4.60;;;;;;;3.39;100.00;100318.75;4964404;28;20057;-58
2022/02/24 01:34:10;;;;;;;7.15;4.47;;;;;;;3.64;100.00;100317.44;4930903;29;20061;-58
2022/02/24 01:36:55;;;;;;;8.02;4.93;;;;;;;3.71;100.00;100321.91;4945801;28;20486;-59
2022/02/24 01:39:39;;;;;;;8.23;5.10;;;;;;;3.41;100.00;100324.03;4934241;28;20141;-59
2022/02/24 01:42:25;;;;;;;7.53;4.78;;;;;;;3.49;100.00;100331.16;4933233;29;20191;-59
2022/02/24 01:45:11;;;;;;;7.25;4.40;;;;;;;3.59;100.00;100330.47;4967997;28;20117;-58
2022/02/24 01:47:58;;;;;;;7.53;4.28;;;;;;;3.30;100.00;100281.94;4939835;29;20121;-61
2022/02/24 01:50:43;;;;;;;5.35;3.60;;;;;;;3.77;100.00;100332.50;4948732;28;20057;-58
2022/02/24 01:53:27;;;;;;;6.15;3.50;;;;;;;3.79;100.00;100334.28;4939703;29;20054;-58
2022/02/24 01:56:12;;;;;;;5.40;3.60;;;;;;;3.46;100.00;100336.38;4933706;29;20534;-57
2022/02/24 01:58:57;;;;;;;4.05;2.58;;;;;;;3.31;100.00;100340.44;4950314;28;20089;-60
2022/02/24 02:01:42;;;;;;;5.00;2.33;;;;;;;2.87;100.00;100291.59;4945843;29;20510;-60
2022/02/24 02:04:26;;;;;;;5.32;2.78;;;;;;;3.12;100.00;100341.84;4955376;28;20065;-60
2022/02/24 02:07:11;;;;;;;3.80;2.50;;;;;;;3.10;100.00;100326.97;4932345;29;20534;-63
2022/02/24 02:09:55;;;;;;;6.20;3.05;;;;;;;3.20;100.00;100341.97;4945282;28;20050;-60
2022/02/24 02:12:47;;;;;;;;;;;;;;;3.14;100.00;100342.78;4933381;28;20054;-57
2022/02/24 02:15:32;;;;;;;6.95;3.45;;;;;;;3.06;100.00;100354.84;4917503;28;19928;-59
2022/02/24 02:18:18;;;;;;;6.80;2.88;;;;;;;2.90;100.00;100347.53;4962630;28;20054;-59
2022/02/24 02:21:03;;;;;;;4.93;2.53;;;;;;;2.82;100.00;100353.47;4964672;28;20162;-61
2022/02/24 02:23:47;;;;;;;5.18;2.38;;;;;;;2.61;100.00;100321.63;4951580;28;20061;-60
2022/02/24 02:26:33;;;;;;;4.13;2.35;;;;;;;2.73;100.00;100354.16;4951990;28;20106;-56
2022/02/24 02:29:18;;;;;;;3.65;2.25;;;;;;;2.67;100.00;100353.16;4948719;28;20079;-56
2022/02/24 02:32:05;;;;;;;3.70;2.08;;;;;;;2.76;100.00;100355.94;4966204;28;20080;-57
2022/02/24 02:34:51;;;;;;;4.18;2.10;;;;;;;2.50;100.00;100313.53;4965842;28;20077;-55
2022/02/24 02:37:35;;;;;;;5.15;1.95;;;;;;;2.84;100.00;100362.22;4965525;28;20046;-56
2022/02/24 02:40:21;;;;;;;6.20;3.03;;;;;;;3.09;100.00;100362.75;4964354;28;20057;-63
2022/02/24 02:43:07;;;;;;;5.53;2.50;;;;;;;3.02;100.00;100344.28;4966072;28;20074;-56
2022/02/24 02:45:52;;;;;;;4.82;1.90;;;;;;;3.15;100.00;100354.13;4964295;28;20085;-56
2022/02/24 02:48:37;;;;;;;2.75;1.60;;;;;;;3.17;100.00;100355.03;4977111;28;20058;-56
2022/02/24 02:51:21;;;;;;;2.63;1.40;;;;;;;2.94;100.00;100319.66;4964646;28;20170;-56
2022/02/24 02:54:06;;;;;;;3.17;1.40;;;;;;;3.18;100.00;100346.31;4956984;28;20054;-55
2022/02/24 02:56:51;;;;;;;1.60;1.05;;;;;;;3.11;100.00;100344.44;4937718;28;20293;-59
2022/02/24 02:59:36;;;;;;;1.50;1.20;;;;;;;3.20;100.00;100371.69;4940193;29;20150;-59
2022/02/24 03:02:21;;;;;;;3.22;1.20;;;;;;;2.78;100.00;100318.50;4957363;28;20077;-59
2022/02/24 03:05:07;;;;;;;1.55;1.00;;;;;;;3.10;100.00;100382.88;4967824;28;20049;-57
2022/02/24 03:07:51;;;;;;;1.88;0.93;;;;;;;2.83;100.00;100340.41;4955830;28;20626;-57
2022/02/24 03:10:36;;;;;;;2.42;0.80;;;;;;;3.07;100.00;100384.53;4969467;28;20113;-54
2022/02/24 03:13:21;;;;;;;2.25;1.08;;;;;;;3.07;100.00;100393.28;4955330;28;20061;-55
2022/02/24 03:16:05;;;;;;;2.97;1.10;;;;;;;3.01;100.00;100392.28;4974822;28;20469;-57
2022/02/24 03:18:50;;;;;;;7.43;2.95;;;;;;;2.91;100.00;100396.44;4964178;28;20062;-63
2022/02/24 03:21:35;;;;;;;4.88;2.10;;;;;;;2.90;100.00;100392.06;4963682;28;20057;-56
2022/02/24 03:24:21;;;;;;;7.18;2.83;;;;;;;2.92;100.00;100403.44;4967406;28;20533;-54
2022/02/24 03:27:06;;;;;;;9.18;2.10;;;;;;;2.84;100.00;100399.78;4967705;28;20053;-54
2022/02/24 03:29:51;;;;;;;3.35;1.42;;;;;;;2.60;100.00;100362.63;4960967;28;20128;-55
2022/02/24 03:32:35;;;;;;;4.57;1.08;;;;;;;2.82;100.00;100400.59;4965104;28;20187;-58
2022/02/24 03:35:21;;;;;;;1.05;0.63;;;;;;;2.87;100.00;100404.19;4953763;28;20050;-54
2022/02/24 03:38:08;;;;;;;1.35;0.80;;;;;;;2.75;100.00;100411.78;4947568;29;20408;-60
2022/02/24 03:40:52;;;;;;;1.60;0.95;;;;;;;2.50;100.00;100383.34;4967425;28;20810;-56
2022/02/24 03:43:37;;;;;;;2.67;0.73;;;;;;;2.84;100.00;100410.25;4951275;28;20057;-56
2022/02/24 03:46:21;;;;;;;1.40;0.85;;;;;;;2.82;100.00;100414.59;4971834;28;20108;-56
2022/02/24 03:49:05;;;;;;;2.15;0.93;;;;;;;2.97;100.00;100417.50;4956394;28;20058;-55
2022/02/24 03:51:51;;;;;;;3.17;0.75;;;;;;;3.04;100.00;100426.38;4967700;28;20057;-57
2022/02/24 03:54:35;;;;;;;2.63;0.73;;;;;;;3.01;100.00;100413.25;4951661;28;20094;-57
2022/02/24 03:57:20;;;;;;;1.90;0.80;;;;;;;3.19;100.00;100439.78;4949958;28;20058;-65
2022/02/24 04:00:07;;;;;;;2.28;0.80;;;;;;;3.32;100.00;100442.69;4954859;28;20044;-58
2022/02/24 04:02:57;;;;;;;2.92;1.08;;;;;;;3.16;100.00;100398.69;4968133;28;20169;-56
2022/02/24 04:05:42;;;;;;;0.80;0.70;;;;;;;3.45;100.00;100452.53;4953945;28;20086;-58
2022/02/24 04:08:27;;;;;;;0.90;0.70;;;;;;;3.26;100.00;100405.00;4949365;28;20135;-57
2022/02/24 04:11:11;;;;;;;1.10;0.60;;;;;;;3.59;100.00;100450.16;4956944;28;20113;-62
2022/02/24 04:13:56;;;;;;;0.98;0.70;;;;;;;3.46;100.00;100453.44;4954339;28;20045;-59
2022/02/24 04:16:41;;;;;;;1.60;0.90;;;;;;;3.43;100.00;100458.59;4952299;28;20100;-57
2022/02/24 04:19:26;;;;;;;2.35;0.80;;;;;;;3.39;100.00;100459.41;4965884;28;20057;-58
2022/02/24 04:22:11;;;;;;;1.08;0.65;;;;;;;3.06;100.00;100424.69;4966115;28;20058;-63
2022/02/24 04:24:58;;;;;;;1.50;0.93;;;;;;;3.23;100.00;100462.56;4956203;28;20127;-57
2022/02/24 04:27:47;;;;;;;1.02;0.77;;;;;;;3.21;100.00;100478.25;4959901;28;20077;-57
2022/02/24 04:30:32;;;;;;;1.95;1.10;;;;;;;3.22;100.00;100481.78;4965598;28;20058;-61
2022/02/24 04:33:16;;;;;;;;;;;;;;;3.09;100.00;100491.09;4965622;28;20109;-60
2022/02/24 04:36:02;;;;;;;5.43;2.10;;;;;;;3.07;100.00;100487.59;4964719;28;19969;-58
2022/02/24 04:38:46;;;;;;;4.55;1.70;;;;;;;2.85;100.00;100490.56;4924929;28;20066;-58
2022/02/24 04:41:30;;;;;;;4.72;1.60;;;;;;;2.52;100.00;100462.75;4949913;28;20054;-59
2022/02/24 04:44:15;;;;;;;2.78;1.70;;;;;;;2.58;100.00;100505.69;4969304;28;20470;-58
2022/02/24 04:46:59;;;;;;;3.17;1.40;;;;;;;2.71;100.00;100510.34;4953920;28;20101;-55
2022/02/24 04:49:44;;;;;;;3.67;1.90;;;;;;;2.57;100.00;100469.00;4965566;28;20078;-64
2022/02/24 04:52:28;;;;;;;2.65;1.58;;;;;;;2.97;100.00;100522.28;4961977;28;20066;-58
2022/02/24 04:55:13;;;;;;;3.80;1.63;;;;;;;2.87;100.00;100474.91;4959036;28;20046;-56
2022/02/24 04:57:57;;;;;;;3.75;1.90;;;;;;;3.24;100.00;100527.25;4972925;28;20081;-58
2022/02/24 05:00:42;;;;;;;3.47;1.98;;;;;;;3.13;100.00;100481.59;4980334;28;20126;-59
2022/02/24 05:03:26;;;;;;;3.20;2.13;;;;;;;3.42;100.00;100531.13;4961780;28;20583;-59
2022/02/24 05:06:11;;;;;;;3.42;1.98;;;;;;;3.59;100.00;100536.69;4964690;28;20117;-58
2022/02/24 05:08:56;;;;;;;8.15;2.30;;;;;;;3.45;100.00;100546.91;4962372;28;20150;-63
2022/02/24 05:11:40;;;;;;;9.85;2.67;;;;;;;2.90;100.00;100473.25;4955616;28;20137;-55
2022/02/24 05:14:24;;;;;;;5.00;2.70;;;;;;;3.38;100.00;100541.50;4958997;28;20086;-55
2022/02/24 05:17:09;;;;;;;6.40;3.00;;;;;;;3.57;100.00;100556.78;4977661;28;20054;-57
2022/02/24 05:19:53;;;;;;;6.45;2.83;;;;;;;3.19;100.00;100558.59;4968275;28;20489;-59
2022/02/24 05:22:41;;;;;;;5.97;2.75;;;;;;;3.32;100.00;100562.38;4948123;29;20151;-59
2022/02/24 05:25:25;;;;;;;6.03;3.38;;;;;;;3.41;100.00;100565.16;4952893;28;20169;-62
2022/02/24 05:28:11;;;;;;;8.88;3.45;;;;;;;3.57;100.00;100567.25;4934295;28;20058;-62
2022/02/24 05:30:59;;;;;;;7.28;3.55;;;;;;;3.34;100.00;100572.03;4954692;28;20121;-58
2022/02/24 05:33:44;;;;;;;6.80;3.28;;;;;;;3.15;100.00;100571.56;4958091;28;20127;-59
2022/02/24 05:36:29;;;;;;;8.93;4.05;;;;;;;2.83;100.00;100544.66;4972967;28;20469;-60
2022/02/24 05:39:14;;;;;;;6.82;3.58;;;;;;;3.25;100.00;100582.28;4971813;28;20655;-56
2022/02/24 05:41:59;;;;;;;7.43;3.58;;;;;;;3.29;100.00;100585.88;4973858;28;20186;-59
2022/02/24 05:44:43;;;;;;;8.05;4.50;;;;;;;3.02;100.00;100541.63;4969194;28;20427;-56
2022/02/24 05:47:28;;;;;;;7.38;4.13;;;;;;;3.43;100.00;100585.31;4975512;28;20061;-64
2022/02/24 05:50:13;;;;;;;6.82;3.88;;;;;;;3.61;100.00;100590.94;4978299;28;20062;-63
2022/02/24 05:53:02;;;;;;;7.47;3.85;;;;;;;3.73;100.00;100591.19;4969197;28;20060;-58
2022/02/24 05:55:46;;;;;;;10.63;4.07;;;;;;;3.79;100.00;100558.94;4961037;28;20177;-58
2022/02/24 05:58:33;;;;;;;6.10;3.95;;;;;;;3.75;100.00;100562.38;4977852;28;20045;-59
2022/02/24 06:01:17;;;;;;;11.27;6.05;;;;;;;4.05;100.00;100599.69;4975548;28;20066;-62
2022/02/24 06:04:02;;;;;;;7.38;3.92;;;;;;;4.02;100.00;100597.91;4976171;28;20096;-58
2022/02/24 06:06:47;;;;;;;;;;;;;;;3.85;100.00;100594.06;4975840;28;20057;-55
2022/02/24 06:09:32;;;;;;;6.55;3.47;;;;;;;3.74;100.00;100606.09;4976429;28;20008;-55
2022/02/24 06:12:17;;;;;;;8.25;3.95;;;;;;;3.87;100.00;100605.47;4972706;28;20343;-55
2022/02/24 06:15:03;;;;;;;7.68;4.32;;;;;;;3.94;100.00;100609.09;4972918;28;20069;-55
2022/02/24 06:17:48;;;;;;;15.23;6.05;;;;;;;4.10;100.00;100611.16;4961081;28;20529;-56
2022/02/24 06:20:32;;;;;;;13.40;6.53;;;;;;;4.15;100.00;100605.16;4951165;28;20096;-62
2022/02/24 06:23:17;;;;;;;8.25;5.05;;;;;;;4.06;100.00;100568.25;4982284;28;20052;-55
2022/02/24 06:26:01;;;;;;;10.75;5.07;;;;;;;3.90;100.00;100568.81;4975664;28;20060;-58
2022/02/24 06:28:46;;;;;;;7.55;4.63;;;;;;;3.85;100.00;100620.31;4963586;28;20053;-55
2022/02/24 06:31:34;;;;;;;8.38;5.00;;;;;;;3.76;100.00;100624.47;4974343;28;20572;-57
2022/02/24 06:34:18;;;;;;;11.30;5.70;;;;;;;3.54;100.00;100632.72;4962611;28;20090;-59
2022/02/24 06:37:03;;;;;;;10.25;5.03;;;;;;;3.32;100.00;100626.13;4958143;28;20085;-69
2022/02/24 06:39:48;;;;;;;7.00;4.78;;;;;;;3.40;100.00;100634.19;4967904;28;20138;-68
2022/02/24 06:42:32;;;;;;;10.85;4.88;;;;;;;3.51;100.00;100643.16;4952481;28;20050;-65
2022/02/24 06:45:17;;;;;;;7.28;5.18;;;;;;;3.48;100.00;100637.84;4946413;28;21022;-65
2022/02/24 06:48:01;;;;;;;9.07;4.50;;;;;;;3.61;100.00;100651.25;4979979;28;20046;-64
2022/02/24 06:50:48;;;;;;;9.43;4.78;;;;;;;3.48;100.00;100654.44;4992719;28;20129;-64
2022/02/24 06:53:32;;;;;;;9.05;4.75;;;;;;;3.34;100.00;100645.41;4966134;28;20134;-67
2022/02/24 06:56:16;;;;;;;8.57;5.03;;;;;;;3.29;100.00;100660.13;4967560;28;20054;-65
2022/02/24 06:59:02;;;;;;;8.50;4.95;;;;;;;3.35;100.00;100668.16;4963331;28;20053;-68
2022/02/24 07:01:47;;;;;;;7.78;4.50;;;;;;;3.30;100.00;100667.16;4949635;28;20105;-67
2022/02/24 07:04:33;;;;;;;9.77;4.85;;;;;;;3.37;100.00;100663.81;4960053;28;20100;-66
2022/02/24 07:07:18;;;;;;;7.80;4.70;;;;;;;3.55;100.00;100655.47;4938227;28;20069;-67
2022/02/24 07:10:12;;;;;;;9.40;5.03;;;;;;;3.49;100.00;100678.94;4957759;28;20845;-66
2022/02/24 07:12:56;;;;;;;8.17;4.77;;;;;;;3.07;100.00;100636.91;4972749;28;20048;-67
2022/02/24 07:15:42;;;;;;;9.50;4.93;;;;;;;3.27;100.00;100671.44;4958546;28;20477;-65
2022/02/24 07:18:26;;;;;;;9.60;4.90;;;;;;;3.29;100.00;100673.22;4971082;28;20060;-66
2022/02/24 07:21:11;;;;;;;9.63;5.00;;;;;;;2.29;100.00;100519.78;4996152;28;20492;-67
2022/02/24 07:23:56;;;;;;;8.20;5.18;;;;;;;3.17;100.00;100680.81;4998260;28;20076;-64
2022/02/24 07:26:40;;;;;;;9.52;5.20;;;;;;;3.17;100.00;100653.72;4985492;28;20494;-68
2022/02/24 07:29:24;;;;;;;10.10;5.00;;;;;;;3.28;100.00;100647.00;4989827;28;20061;-66
2022/02/24 07:32:10;;;;;;;;;;;;;;;3.71;100.00;100681.16;4968312;28;20170;-68
2022/02/24 07:34:55;;;;;;;10.90;5.40;;;;;;;3.64;100.00;100677.53;4971964;28;20005;-65
2022/02/24 07:37:39;;;;;;;10.15;5.18;;;;;;;3.70;100.00;100682.94;5001946;28;20092;-67
2022/02/24 07:40:23;;;;;;;10.90;5.50;;;;;;;3.35;100.00;100630.56;4997124;28;20076;-65
2022/02/24 07:43:08;;;;;;;12.48;6.65;;;;;;;3.16;100.00;100633.59;4979551;28;20104;-61
2022/02/24 07:45:52;;;;;;;12.18;5.43;;;;;;;3.41;100.00;100683.13;4974575;28;20061;-63
2022/02/24 07:48:37;;;;;;;9.57;6.00;;;;;;;3.44;100.00;100698.94;4989894;28;20073;-65
2022/02/24 07:51:22;;;;;;;9.48;5.80;;;;;;;3.17;100.00;100651.13;4988822;28;20137;-65
2022/02/24 07:54:06;;;;;;;8.83;4.93;;;;;;;3.22;100.00;100694.94;4991370;28;20066;-67
2022/02/24 07:56:50;;;;;;;9.48;5.35;;;;;;;3.19;100.00;100686.97;4981281;28;20075;-67
2022/02/24 07:59:35;;;;;;;12.60;5.43;;;;;;;3.31;100.00;100691.63;4996269;28;20158;-65
2022/02/24 08:02:19;;;;;;;11.98;5.30;;;;;;;3.10;100.00;100657.94;4989024;28;20053;-64
2022/02/24 08:05:04;;;;;;;11.07;4.85;;;;;;;3.55;100.00;100713.16;4996150;28;20073;-66
2022/02/24 08:07:49;;;;;;;12.13;4.93;;;;;;;3.43;100.00;100689.28;4927615;28;20161;-65
2022/02/24 08:10:34;;;;;;;7.07;4.60;;;;;;;3.59;100.00;100720.22;4965374;28;20053;-67
2022/02/24 08:13:19;;;;;;;7.35;4.30;;;;;;;3.10;100.00;100667.53;4968924;28;20163;-64
2022/02/24 08:16:03;;;;;;;7.60;3.90;;;;;;;3.31;100.00;100716.09;4972803;28;20533;-69
2022/02/24 08:18:48;;;;;;;8.30;4.20;;;;;;;3.17;100.00;100711.38;4975398;28;20081;-64
2022/02/24 08:21:32;;;;;;;7.28;4.13;;;;;;;3.37;100.00;100724.09;4973349;28;20056;-63
2022/02/24 08:24:17;;;;;;;5.57;3.80;;;;;;;3.23;100.00;100719.38;4974420;28;20100;-63
2022/02/24 08:27:02;;;;;;;8.15;3.95;;;;;;;3.34;100.00;100715.28;4975291;28;20053;-65
2022/02/24 08:29:46;;;;;;;7.63;4.15;;;;;;;3.41;100.00;100725.06;4970220;28;20530;-64
2022/02/24 08:32:31;;;;;;;6.50;3.70;;;;;;;3.48;100.00;100717.38;4976820;28;20053;-65
2022/02/24 08:35:17;;;;;;;6.35;4.15;;;;;;;3.51;100.00;100727.94;4970155;28;20158;-67
2022/02/24 08:38:02;;;;;;;7.00;4.18;;;;;;;3.63;100.00;100725.59;4976106;28;20053;-63
2022/02/24 08:40:47;;;;;;;6.88;4.15;;;;;;;3.98;100.00;100731.59;4969164;28;20048;-67
2022/02/24 08:43:32;;;;;;;5.85;3.80;;;;;;;4.24;100.00;100733.91;4958847;28;20104;-65
2022/02/24 08:46:16;;;;;;;6.03;4.05;;;;;;;4.23;100.00;100724.28;4981161;28;20076;-64
2022/02/24 08:49:00;;;;;;;9.25;4.07;;;;;;;4.54;100.00;100728.41;4982130;28;20390;-64
2022/02/24 08:51:45;;;;;;;12.23;4.05;;;;;;;4.77;100.00;100730.63;4983719;28;20156;-64
2022/02/24 08:54:29;;;;;;;6.10;3.70;;;;;;;5.04;100.00;100732.84;4980209;28;20093;-65
2022/02/24 08:57:14;;;;;;;6.97;4.32;;;;;;;4.85;100.00;100683.44;4953417;28;20177;-64
2022/02/24 08:59:58;;;;;;;8.13;4.10;;;;;;;5.11;100.00;100726.84;4951313;28;20534;-67
2022/02/24 09:02:42;;;;;;;6.38;4.13;;;;;;;5.25;100.00;100740.22;4977940;28;20108;-64
2022/02/24 09:05:27;;;;;;;10.98;4.07;;;;;;;5.32;100.00;100734.19;4972050;28;20052;-63
2022/02/24 09:08:12;;;;;;;9.60;4.22;;;;;;;5.22;100.00;100698.09;4968709;28;20052;-66
2022/02/24 09:10:56;;;;;;;7.78;3.65;;;;;;;5.28;100.00;100713.94;4949906;28;20149;-65
2022/02/24 09:13:42;;;;;;;8.30;4.20;;;;;;;5.32;100.00;100729.81;4957664;28;20166;-64
2022/02/24 09:16:27;;;;;;;5.93;3.85;;;;;;;5.25;100.00;100738.44;4965397;28;20050;-65
2022/02/24 09:19:12;;;;;;;;;;;;;;;5.42;100.00;100725.59;4955750;28;20061;-61
2022/02/24 09:21:57;;;;;;;11.10;4.22;;;;;;;5.34;100.00;100716.69;4953267;28;20014;-65
2022/02/24 09:24:42;;;;;;;9.13;3.88;;;;;;;5.51;100.00;100724.00;4971329;28;20439;-59
2022/02/24 09:27:28;;;;;;;6.72;4.00;;;;;;;5.57;100.00;100712.69;4955416;28;20042;-61
2022/02/24 09:30:12;;;;;;;12.52;4.50;;;;;;;5.60;100.00;100716.22;4955247;28;20458;-63
2022/02/24 09:32:57;;;;;;;6.50;4.15;;;;;;;5.48;100.00;100725.66;4971976;28;20056;-61
2022/02/24 09:35:43;;;;;;;6.40;3.97;;;;;;;5.26;100.00;100721.81;4971049;28;20045;-61
2022/02/24 09:38:28;;;;;;;7.40;3.67;;;;;;;4.99;100.00;100735.38;4970604;28;20050;-63
2022/02/24 09:41:14;;;;;;;7.43;4.00;;;;;;;4.72;100.00;100724.38;4979803;28;20081;-61
2022/02/24 09:43:58;;;;;;;5.85;3.53;;;;;;;4.44;100.00;100690.56;4979432;28;20088;-62
2022/02/24 09:46:43;;;;;;;13.43;3.72;;;;;;;4.79;100.00;100734.13;4972612;28;20109;-60
2022/02/24 09:49:29;;;;;;;10.43;3.92;;;;;;;4.49;100.00;100733.56;4975790;28;20053;-63
2022/02/24 09:52:14;;;;;;;8.18;3.22;;;;;;;4.55;100.00;100733.69;4973223;28;20128;-65
2022/02/24 09:54:58;;;;;;;6.32;3.80;;;;;;;4.77;100.00;100722.72;4972577;28;20094;-60
2022/02/24 09:57:43;;;;;;;8.23;4.53;;;;;;;4.98;100.00;100733.63;4956723;28;20464;-59
2022/02/24 10:00:27;;;;;;;6.45;3.83;;;;;;;5.23;100.00;100742.81;4973179;28;20157;-61
2022/02/24 10:03:33;;;;;;;10.80;4.15;;;;;;;5.04;100.00;100736.34;4969868;28;20057;-62
2022/02/24 10:06:17;;;;;;;10.23;4.28;;;;;;;4.87;100.00;100729.03;4967315;28;20036;-63
2022/02/24 10:09:02;;;;;;;7.93;4.30;;;;;;;4.74;100.00;100687.63;4971454;28;20502;-63
2022/02/24 10:11:47;;;;;;;7.80;4.25;;;;;;;4.94;100.00;100737.06;4971324;28;20140;-64
2022/02/24 10:14:34;;;;;;;5.78;3.35;;;;;;;5.22;100.00;100738.38;4944178;28;20442;-64
2022/02/24 10:17:19;;;;;;;7.65;4.00;;;;;;;5.10;100.00;100727.66;4971389;28;20054;-61
2022/02/24 10:20:09;;;;;;;6.13;3.95;;;;;;;5.02;100.00;100737.16;4974590;28;20045;-66
2022/02/24 10:22:57;;;;;;;6.35;4.03;;;;;;;4.87;100.00;100735.16;4972958;28;20514;-59
2022/02/24 10:25:50;;;;;;;7.55;4.13;;;;;;;4.49;100.00;100667.03;4943715;28;20541;-60
2022/02/24 10:28:49;;;;;;;5.28;2.97;;;;;;;4.63;100.00;100746.97;4945443;28;20073;-64
2022/02/24 10:31:42;;;;;;;7.32;2.50;;;;;;;3.77;100.00;100708.41;4970972;28;20066;-65
2022/02/24 10:34:27;;;;;;;7.43;2.53;;;;;;;3.82;100.00;100755.75;4955891;28;20045;-62
2022/02/24 10:37:12;;;;;;;4.75;2.60;;;;;;;3.71;100.00;100751.97;4948666;28;20500;-63
2022/02/24 10:40:04;;;;;;;5.13;2.95;;;;;;;3.61;100.00;100758.75;4964733;28;20443;-60
2022/02/24 10:42:49;;;;;;;5.20;3.20;;;;;;;3.56;100.00;100764.75;4963497;28;20390;-60
2022/02/24 10:45:33;;;;;;;;;;;;;;;3.68;100.00;100754.56;4950242;28;20137;-62
2022/02/24 10:48:18;;;;;;;4.68;2.65;;;;;;;3.36;100.00;100732.81;4948703;28;19917;-59
2022/02/24 10:51:05;;;;;;;5.00;2.90;;;;;;;3.37;100.00;100760.78;4961774;28;20392;-64
2022/02/24 10:54:10;;;;;;;9.68;2.83;;;;;;;3.35;100.00;100765.13;4960380;28;20046;-62
2022/02/24 10:57:14;;;;;;;9.23;2.30;;;;;;;3.44;100.00;100774.97;4948560;28;20049;-59
2022/02/24 10:59:59;;;;;;;5.10;2.35;;;;;;;3.43;100.00;100765.28;4946420;28;20118;-59
2022/02/24 11:02:43;;;;;;;5.85;3.28;;;;;;;3.46;100.00;100770.63;4966172;28;20060;-59
2022/02/24 11:05:28;;;;;;;5.95;3.20;;;;;;;3.33;100.00;100760.69;4961762;28;20168;-60
2022/02/24 11:08:13;;;;;;;5.28;2.55;;;;;;;3.27;100.00;100774.53;4963467;28;20053;-64
2022/02/24 11:11:02;;;;;;;5.35;2.65;;;;;;;3.32;100.00;100774.66;4966162;28;20093;-64
2022/02/24 11:13:48;;;;;;;4.22;2.47;;;;;;;3.25;100.00;100764.88;4966467;28;20057;-60
2022/02/24 11:16:34;;;;;;;4.93;2.30;;;;;;;3.18;100.00;100757.69;4942048;28;20558;-58
2022/02/24 11:19:19;;;;;;;3.33;1.98;;;;;;;3.40;100.00;100773.09;4968170;28;20089;-61
2022/02/24 11:22:07;;;;;;;4.13;1.80;;;;;;;3.56;100.00;100775.25;4939140;28;20102;-63
2022/02/24 11:24:54;;;;;;;3.53;2.15;;;;;;;3.64;100.00;100786.81;4968079;28;20430;-60
2022/02/24 11:27:52;;;;;;;2.47;1.70;;;;;;;3.69;100.00;100793.03;4937282;28;20133;-61
2022/02/24 11:30:41;;;;;;;3.08;2.00;;;;;;;3.67;100.00;100800.88;4959296;28;20146;-64
2022/02/24 11:33:28;;;;;;;3.40;2.20;;;;;;;3.73;100.00;100790.50;4966288;28;20093;-60
2022/02/24 11:36:16;;;;;;;3.13;1.65;;;;;;;3.85;100.00;100792.53;4952187;28;20406;-65
2022/02/24 11:39:18;;;;;;;4.53;1.80;;;;;;;4.23;100.00;100796.88;4953574;28;20440;-60
2022/02/24 11:42:03;;;;;;;3.83;2.25;;;;;;;4.12;100.00;100801.03;4938174;28;20049;-64
2022/02/24 11:44:50;;;;;;;4.40;2.28;;;;;;;4.21;100.00;100783.75;4965765;28;20137;-57
2022/02/24 11:47:57;;;;;;;5.32;1.85;;;;;;;4.32;100.00;100784.84;4953502;28;20147;-63
2022/02/24 11:50:44;;;;;;;6.78;1.75;;;;;;;4.18;100.00;100802.06;4953474;28;20169;-60
2022/02/24 11:53:41;;;;;;;3.15;1.80;;;;;;;4.18;100.00;100788.94;4941373;28;20121;-60
2022/02/24 11:56:26;;;;;;;5.72;2.22;;;;;;;4.41;100.00;100792.94;4976329;28;20109;-59
2022/02/24 11:59:28;;;;;;;4.10;1.75;;;;;;;4.39;100.00;100796.34;4937450;28;20176;-60
2022/02/24 12:02:17;;;;;;;2.75;2.03;;;;;;;4.51;100.00;100792.25;4964794;28;20113;-61
2022/02/24 12:05:03;;;;;;;5.10;2.25;;;;;;;4.56;100.00;100782.72;4964797;28;20383;-59
2022/02/24 12:08:01;;;;;;;4.05;1.85;;;;;;;4.44;100.00;100784.22;4946049;29;20456;-62
2022/02/24 12:10:49;;;;;;;5.07;2.28;;;;;;;4.29;100.00;100779.56;4932979;28;20050;-62
2022/02/24 12:13:33;;;;;;;4.47;2.60;;;;;;;4.03;100.00;100743.97;4959386;28;20046;-58
2022/02/24 12:16:20;;;;;;;6.47;3.00;;;;;;;4.18;100.00;100774.91;4964938;28;20132;-58
2022/02/24 12:19:05;;;;;;;5.15;2.35;;;;;;;4.19;100.00;100774.94;4960741;28;20148;-61
2022/02/24 12:22:10;;;;;;;3.63;2.30;;;;;;;4.38;100.00;100777.09;4957600;28;20399;-60
2022/02/24 12:25:12;;;;;;;4.90;2.53;;;;;;;4.33;100.00;100763.00;4934207;28;20121;-61
2022/02/24 12:28:09;;;;;;;8.23;2.88;;;;;;;4.41;100.00;100777.19;4953091;28;20049;-58
2022/02/24 12:30:55;;;;;;;4.68;2.67;;;;;;;4.39;100.00;100767.47;4953668;28;20113;-60
2022/02/24 12:33:41;;;;;;;4.95;2.85;;;;;;;4.39;100.00;100767.47;4966010;28;20576;-70
2022/02/24 12:36:26;;;;;;;5.95;3.47;;;;;;;4.32;100.00;100758.59;4954126;28;20450;-58
2022/02/24 12:39:12;;;;;;;8.45;3.35;;;;;;;4.42;100.00;100763.19;4967418;28;20144;-60
2022/02/24 12:41:56;;;;;;;10.50;3.45;;;;;;;4.52;100.00;100773.00;4947897;28;20038;-61
2022/02/24 12:44:41;;;;;;;7.30;3.22;;;;;;;4.56;100.00;100738.06;4969320;28;20451;-62
2022/02/24 12:47:26;;;;;;;6.85;2.50;;;;;;;4.61;100.00;100749.56;4942681;28;20054;-62
2022/02/24 12:50:11;;;;;;;4.68;2.50;;;;;;;4.62;100.00;100756.59;4957908;28;20673;-60
2022/02/24 12:53:20;;;;;;;4.57;2.20;;;;;;;4.89;100.00;100753.59;4964033;28;20608;-64